sensor_id;sensor_type;location;lat;lon;timestamp;P1;durP1;ratioP1;P2;durP2;ratioP2
16031;SDS011;8120;48.308;8.914;2024-02-04T00:02:23;1.77;;;1.60;;
16031;SDS011;8120;48.308;8.914;2024-02-04T00:04:52;2.13;;;1.40;;
16031;SDS011;8120;48.308;8.914;2024-02-04T00:07:21;3.17;;;2.00;;
16031;SDS011;8120;48.308;8.914;2024-02-04T00:09:49;1.73;;;1.63;;
16031;SDS011;8120;48.308;8.914;2024-02-04T00:12:17;2.67;;;1.50;;
16031;SDS011;8120;48.308;8.914;2024-02-04T00:14:45;3.90;;;2.07;;
16031;SDS011;8120;48.308;8.914;2024-02-04T00:17:14;2.50;;;1.60;;
16031;SDS011;8120;48.308;8.914;2024-02-04T00:19:43;2.07;;;1.60;;
16031;SDS011;8120;48.308;8.914;2024-02-04T00:22:11;2.23;;;1.57;;
16031;SDS011;8120;48.308;8.914;2024-02-04T00:24:40;2.60;;;1.60;;
16031;SDS011;8120;48.308;8.914;2024-02-04T00:27:08;2.60;;;1.80;;
16031;SDS011;8120;48.308;8.914;2024-02-04T00:29:36;2.77;;;2.10;;
16031;SDS011;8120;48.308;8.914;2024-02-04T00:32:04;2.60;;;1.70;;
16031;SDS011;8120;48.308;8.914;2024-02-04T00:34:32;3.53;;;1.90;;
16031;SDS011;8120;48.308;8.914;2024-02-04T00:37:00;2.67;;;1.80;;
16031;SDS011;8120;48.308;8.914;2024-02-04T00:39:28;2.40;;;1.90;;
16031;SDS011;8120;48.308;8.914;2024-02-04T00:41:58;2.73;;;1.90;;
16031;SDS011;8120;48.308;8.914;2024-02-04T00:44:26;3.10;;;1.90;;
16031;SDS011;8120;48.308;8.914;2024-02-04T00:46:54;3.47;;;2.20;;
16031;SDS011;8120;48.308;8.914;2024-02-04T00:49:22;2.53;;;1.47;;
16031;SDS011;8120;48.308;8.914;2024-02-04T00:51:50;3.00;;;1.70;;
16031;SDS011;8120;48.308;8.914;2024-02-04T00:54:17;2.93;;;1.70;;
16031;SDS011;8120;48.308;8.914;2024-02-04T00:56:45;1.43;;;1.23;;
16031;SDS011;8120;48.308;8.914;2024-02-04T00:59:15;2.10;;;1.50;;
16031;SDS011;8120;48.308;8.914;2024-02-04T01:01:43;2.60;;;1.67;;
16031;SDS011;8120;48.308;8.914;2024-02-04T01:04:11;1.70;;;1.27;;
16031;SDS011;8120;48.308;8.914;2024-02-04T01:06:39;2.60;;;1.73;;
16031;SDS011;8120;48.308;8.914;2024-02-04T01:09:25;2.73;;;1.43;;
16031;SDS011;8120;48.308;8.914;2024-02-04T01:11:53;1.57;;;1.20;;
16031;SDS011;8120;48.308;8.914;2024-02-04T01:14:22;1.93;;;1.40;;
16031;SDS011;8120;48.308;8.914;2024-02-04T01:16:50;3.03;;;1.70;;
16031;SDS011;8120;48.308;8.914;2024-02-04T01:19:18;1.93;;;1.20;;
16031;SDS011;8120;48.308;8.914;2024-02-04T01:21:46;2.07;;;1.57;;
16031;SDS011;8120;48.308;8.914;2024-02-04T01:24:14;1.60;;;1.20;;
16031;SDS011;8120;48.308;8.914;2024-02-04T01:26:42;2.77;;;1.33;;
16031;SDS011;8120;48.308;8.914;2024-02-04T01:29:10;1.77;;;1.27;;
16031;SDS011;8120;48.308;8.914;2024-02-04T01:31:39;1.57;;;1.23;;
16031;SDS011;8120;48.308;8.914;2024-02-04T01:34:06;1.97;;;1.23;;
16031;SDS011;8120;48.308;8.914;2024-02-04T01:36:34;1.53;;;1.40;;
16031;SDS011;8120;48.308;8.914;2024-02-04T01:39:02;2.17;;;1.23;;
16031;SDS011;8120;48.308;8.914;2024-02-04T01:41:30;3.13;;;1.50;;
16031;SDS011;8120;48.308;8.914;2024-02-04T01:43:59;0.97;;;0.87;;
16031;SDS011;8120;48.308;8.914;2024-02-04T01:46:27;2.43;;;1.30;;
16031;SDS011;8120;48.308;8.914;2024-02-04T01:48:57;1.63;;;1.17;;
16031;SDS011;8120;48.308;8.914;2024-02-04T01:51:25;1.37;;;1.03;;
16031;SDS011;8120;48.308;8.914;2024-02-04T01:53:53;1.67;;;1.20;;
16031;SDS011;8120;48.308;8.914;2024-02-04T01:56:21;1.67;;;0.80;;
16031;SDS011;8120;48.308;8.914;2024-02-04T01:58:49;0.97;;;0.90;;
16031;SDS011;8120;48.308;8.914;2024-02-04T02:01:17;2.73;;;1.30;;
16031;SDS011;8120;48.308;8.914;2024-02-04T02:03:45;1.73;;;1.20;;
16031;SDS011;8120;48.308;8.914;2024-02-04T02:06:16;1.53;;;1.13;;
16031;SDS011;8120;48.308;8.914;2024-02-04T02:08:44;1.70;;;1.00;;
16031;SDS011;8120;48.308;8.914;2024-02-04T02:11:13;1.40;;;1.30;;
16031;SDS011;8120;48.308;8.914;2024-02-04T02:13:49;1.93;;;1.37;;
16031;SDS011;8120;48.308;8.914;2024-02-04T02:16:28;2.00;;;1.33;;
16031;SDS011;8120;48.308;8.914;2024-02-04T02:19:00;1.73;;;1.13;;
16031;SDS011;8120;48.308;8.914;2024-02-04T02:21:44;2.30;;;1.30;;
16031;SDS011;8120;48.308;8.914;2024-02-04T02:24:28;3.17;;;1.30;;
16031;SDS011;8120;48.308;8.914;2024-02-04T02:27:00;1.67;;;1.27;;
16031;SDS011;8120;48.308;8.914;2024-02-04T02:29:28;1.87;;;1.10;;
16031;SDS011;8120;48.308;8.914;2024-02-04T02:31:56;1.37;;;1.20;;
16031;SDS011;8120;48.308;8.914;2024-02-04T02:34:24;1.23;;;1.03;;
16031;SDS011;8120;48.308;8.914;2024-02-04T02:37:07;1.33;;;1.13;;
16031;SDS011;8120;48.308;8.914;2024-02-04T02:39:45;1.87;;;1.07;;
16031;SDS011;8120;48.308;8.914;2024-02-04T02:42:16;1.27;;;1.17;;
16031;SDS011;8120;48.308;8.914;2024-02-04T02:44:45;1.50;;;1.30;;
16031;SDS011;8120;48.308;8.914;2024-02-04T02:47:14;1.93;;;1.13;;
16031;SDS011;8120;48.308;8.914;2024-02-04T02:49:44;1.67;;;1.00;;
16031;SDS011;8120;48.308;8.914;2024-02-04T02:52:12;1.50;;;1.07;;
16031;SDS011;8120;48.308;8.914;2024-02-04T02:54:40;1.03;;;1.00;;
16031;SDS011;8120;48.308;8.914;2024-02-04T02:57:09;1.50;;;1.00;;
16031;SDS011;8120;48.308;8.914;2024-02-04T02:59:37;1.70;;;1.10;;
16031;SDS011;8120;48.308;8.914;2024-02-04T03:02:05;1.97;;;1.37;;
16031;SDS011;8120;48.308;8.914;2024-02-04T03:04:33;2.67;;;1.40;;
16031;SDS011;8120;48.308;8.914;2024-02-04T03:07:01;0.77;;;0.60;;
16031;SDS011;8120;48.308;8.914;2024-02-04T03:09:28;0.87;;;0.80;;
16031;SDS011;8120;48.308;8.914;2024-02-04T03:11:56;1.47;;;1.00;;
16031;SDS011;8120;48.308;8.914;2024-02-04T03:14:26;2.37;;;1.27;;
16031;SDS011;8120;48.308;8.914;2024-02-04T03:16:53;2.23;;;1.57;;
16031;SDS011;8120;48.308;8.914;2024-02-04T03:19:22;2.00;;;1.20;;
16031;SDS011;8120;48.308;8.914;2024-02-04T03:21:50;1.17;;;1.07;;
16031;SDS011;8120;48.308;8.914;2024-02-04T03:24:17;1.70;;;1.30;;
16031;SDS011;8120;48.308;8.914;2024-02-04T03:26:45;1.00;;;1.00;;
16031;SDS011;8120;48.308;8.914;2024-02-04T03:29:13;1.87;;;1.13;;
16031;SDS011;8120;48.308;8.914;2024-02-04T03:31:42;1.70;;;1.27;;
16031;SDS011;8120;48.308;8.914;2024-02-04T03:34:10;1.93;;;1.27;;
16031;SDS011;8120;48.308;8.914;2024-02-04T03:36:39;1.30;;;1.20;;
16031;SDS011;8120;48.308;8.914;2024-02-04T03:39:07;2.23;;;1.00;;
16031;SDS011;8120;48.308;8.914;2024-02-04T03:41:35;2.20;;;1.10;;
16031;SDS011;8120;48.308;8.914;2024-02-04T03:44:03;1.90;;;1.00;;
16031;SDS011;8120;48.308;8.914;2024-02-04T03:46:31;2.13;;;1.23;;
16031;SDS011;8120;48.308;8.914;2024-02-04T03:49:00;0.90;;;0.77;;
16031;SDS011;8120;48.308;8.914;2024-02-04T03:51:29;1.70;;;1.30;;
16031;SDS011;8120;48.308;8.914;2024-02-04T03:53:56;0.90;;;0.80;;
16031;SDS011;8120;48.308;8.914;2024-02-04T03:56:24;1.83;;;1.20;;
16031;SDS011;8120;48.308;8.914;2024-02-04T03:58:52;2.20;;;1.30;;
16031;SDS011;8120;48.308;8.914;2024-02-04T04:01:20;1.40;;;1.30;;
16031;SDS011;8120;48.308;8.914;2024-02-04T04:03:48;1.10;;;1.00;;
16031;SDS011;8120;48.308;8.914;2024-02-04T04:06:17;1.30;;;1.20;;
16031;SDS011;8120;48.308;8.914;2024-02-04T04:08:45;3.60;;;1.17;;
16031;SDS011;8120;48.308;8.914;2024-02-04T04:11:13;1.50;;;1.20;;
16031;SDS011;8120;48.308;8.914;2024-02-04T04:13:42;1.53;;;1.23;;
16031;SDS011;8120;48.308;8.914;2024-02-04T04:16:09;1.10;;;0.90;;
16031;SDS011;8120;48.308;8.914;2024-02-04T04:18:38;1.93;;;1.17;;
16031;SDS011;8120;48.308;8.914;2024-02-04T04:21:06;1.93;;;0.97;;
16031;SDS011;8120;48.308;8.914;2024-02-04T04:23:35;1.47;;;1.00;;
16031;SDS011;8120;48.308;8.914;2024-02-04T04:26:03;3.63;;;1.30;;
16031;SDS011;8120;48.308;8.914;2024-02-04T04:28:31;1.60;;;1.20;;
16031;SDS011;8120;48.308;8.914;2024-02-04T04:30:59;1.30;;;0.87;;
16031;SDS011;8120;48.308;8.914;2024-02-04T04:33:27;2.63;;;1.50;;
16031;SDS011;8120;48.308;8.914;2024-02-04T04:35:56;1.40;;;1.10;;
16031;SDS011;8120;48.308;8.914;2024-02-04T04:38:24;1.60;;;0.90;;
16031;SDS011;8120;48.308;8.914;2024-02-04T04:40:53;2.47;;;1.37;;
16031;SDS011;8120;48.308;8.914;2024-02-04T04:43:21;4.13;;;1.30;;
16031;SDS011;8120;48.308;8.914;2024-02-04T04:45:49;2.73;;;1.50;;
16031;SDS011;8120;48.308;8.914;2024-02-04T04:48:17;2.07;;;1.03;;
16031;SDS011;8120;48.308;8.914;2024-02-04T04:50:45;1.23;;;0.93;;
16031;SDS011;8120;48.308;8.914;2024-02-04T04:53:13;2.47;;;1.50;;
16031;SDS011;8120;48.308;8.914;2024-02-04T04:55:41;1.53;;;1.17;;
16031;SDS011;8120;48.308;8.914;2024-02-04T04:58:10;1.73;;;1.10;;
16031;SDS011;8120;48.308;8.914;2024-02-04T05:00:38;0.50;;;0.50;;
16031;SDS011;8120;48.308;8.914;2024-02-04T05:03:06;1.93;;;1.23;;
16031;SDS011;8120;48.308;8.914;2024-02-04T05:05:34;0.70;;;0.70;;
16031;SDS011;8120;48.308;8.914;2024-02-04T05:08:02;1.27;;;1.17;;
16031;SDS011;8120;48.308;8.914;2024-02-04T05:10:31;3.00;;;1.13;;
16031;SDS011;8120;48.308;8.914;2024-02-04T05:12:59;0.77;;;0.77;;
16031;SDS011;8120;48.308;8.914;2024-02-04T05:15:28;2.33;;;1.40;;
16031;SDS011;8120;48.308;8.914;2024-02-04T05:17:57;1.07;;;1.07;;
16031;SDS011;8120;48.308;8.914;2024-02-04T05:20:25;1.53;;;1.20;;
16031;SDS011;8120;48.308;8.914;2024-02-04T05:22:55;1.20;;;0.93;;
16031;SDS011;8120;48.308;8.914;2024-02-04T05:25:23;1.40;;;1.00;;
16031;SDS011;8120;48.308;8.914;2024-02-04T05:27:52;2.03;;;1.20;;
16031;SDS011;8120;48.308;8.914;2024-02-04T05:30:20;3.47;;;1.50;;
16031;SDS011;8120;48.308;8.914;2024-02-04T05:32:49;0.80;;;0.73;;
16031;SDS011;8120;48.308;8.914;2024-02-04T05:35:17;1.13;;;0.77;;
16031;SDS011;8120;48.308;8.914;2024-02-04T05:37:45;1.30;;;1.10;;
16031;SDS011;8120;48.308;8.914;2024-02-04T05:40:13;1.33;;;0.87;;
16031;SDS011;8120;48.308;8.914;2024-02-04T05:42:43;1.47;;;1.00;;
16031;SDS011;8120;48.308;8.914;2024-02-04T05:45:11;1.70;;;1.30;;
16031;SDS011;8120;48.308;8.914;2024-02-04T05:47:39;1.13;;;0.77;;
16031;SDS011;8120;48.308;8.914;2024-02-04T05:50:09;1.90;;;1.20;;
16031;SDS011;8120;48.308;8.914;2024-02-04T05:52:37;1.20;;;1.10;;
16031;SDS011;8120;48.308;8.914;2024-02-04T05:55:06;3.17;;;1.70;;
16031;SDS011;8120;48.308;8.914;2024-02-04T05:57:34;2.03;;;1.40;;
16031;SDS011;8120;48.308;8.914;2024-02-04T06:00:02;2.70;;;1.27;;
16031;SDS011;8120;48.308;8.914;2024-02-04T06:02:31;2.50;;;1.70;;
16031;SDS011;8120;48.308;8.914;2024-02-04T06:04:59;4.67;;;2.17;;
16031;SDS011;8120;48.308;8.914;2024-02-04T06:07:28;2.13;;;1.90;;
16031;SDS011;8120;48.308;8.914;2024-02-04T06:09:56;4.53;;;2.53;;
16031;SDS011;8120;48.308;8.914;2024-02-04T06:12:26;2.90;;;1.83;;
16031;SDS011;8120;48.308;8.914;2024-02-04T06:14:53;4.70;;;2.93;;
16031;SDS011;8120;48.308;8.914;2024-02-04T06:17:20;3.97;;;2.23;;
16031;SDS011;8120;48.308;8.914;2024-02-04T06:19:48;3.33;;;2.33;;
16031;SDS011;8120;48.308;8.914;2024-02-04T06:22:16;4.30;;;3.23;;
16031;SDS011;8120;48.308;8.914;2024-02-04T06:24:45;2.50;;;1.77;;
16031;SDS011;8120;48.308;8.914;2024-02-04T06:27:13;2.90;;;1.70;;
16031;SDS011;8120;48.308;8.914;2024-02-04T06:29:41;3.77;;;1.80;;
16031;SDS011;8120;48.308;8.914;2024-02-04T06:32:12;3.23;;;2.00;;
16031;SDS011;8120;48.308;8.914;2024-02-04T06:34:40;1.87;;;1.60;;
16031;SDS011;8120;48.308;8.914;2024-02-04T06:37:09;3.43;;;1.60;;
16031;SDS011;8120;48.308;8.914;2024-02-04T06:39:37;4.47;;;2.43;;
16031;SDS011;8120;48.308;8.914;2024-02-04T06:42:06;3.50;;;2.00;;
16031;SDS011;8120;48.308;8.914;2024-02-04T06:44:34;4.83;;;3.00;;
16031;SDS011;8120;48.308;8.914;2024-02-04T06:47:03;7.73;;;4.30;;
16031;SDS011;8120;48.308;8.914;2024-02-04T06:49:30;4.57;;;1.80;;
16031;SDS011;8120;48.308;8.914;2024-02-04T06:51:59;4.47;;;1.90;;
16031;SDS011;8120;48.308;8.914;2024-02-04T06:54:27;3.07;;;1.80;;
16031;SDS011;8120;48.308;8.914;2024-02-04T06:56:54;1.83;;;1.20;;
16031;SDS011;8120;48.308;8.914;2024-02-04T06:59:24;1.40;;;0.83;;
16031;SDS011;8120;48.308;8.914;2024-02-04T07:01:52;2.27;;;1.43;;
16031;SDS011;8120;48.308;8.914;2024-02-04T07:04:20;2.30;;;1.43;;
16031;SDS011;8120;48.308;8.914;2024-02-04T07:06:51;2.57;;;1.20;;
16031;SDS011;8120;48.308;8.914;2024-02-04T07:09:20;1.57;;;1.00;;
16031;SDS011;8120;48.308;8.914;2024-02-04T07:11:47;3.57;;;1.73;;
16031;SDS011;8120;48.308;8.914;2024-02-04T07:14:15;1.83;;;1.07;;
16031;SDS011;8120;48.308;8.914;2024-02-04T07:16:44;2.07;;;1.17;;
16031;SDS011;8120;48.308;8.914;2024-02-04T07:19:13;1.30;;;1.20;;
16031;SDS011;8120;48.308;8.914;2024-02-04T07:21:41;1.40;;;0.80;;
16031;SDS011;8120;48.308;8.914;2024-02-04T07:24:10;2.53;;;1.33;;
16031;SDS011;8120;48.308;8.914;2024-02-04T07:26:38;5.97;;;2.70;;
16031;SDS011;8120;48.308;8.914;2024-02-04T07:29:06;3.40;;;2.40;;
16031;SDS011;8120;48.308;8.914;2024-02-04T07:31:33;2.20;;;1.27;;
16031;SDS011;8120;48.308;8.914;2024-02-04T07:34:05;1.80;;;1.13;;
16031;SDS011;8120;48.308;8.914;2024-02-04T07:36:33;10.70;;;3.43;;
16031;SDS011;8120;48.308;8.914;2024-02-04T07:39:01;0.87;;;0.73;;
16031;SDS011;8120;48.308;8.914;2024-02-04T07:41:31;1.20;;;1.07;;
16031;SDS011;8120;48.308;8.914;2024-02-04T07:43:59;9.83;;;5.70;;
16031;SDS011;8120;48.308;8.914;2024-02-04T07:46:26;17.50;;;10.57;;
16031;SDS011;8120;48.308;8.914;2024-02-04T07:48:54;9.07;;;5.67;;
16031;SDS011;8120;48.308;8.914;2024-02-04T07:51:24;4.00;;;2.20;;
16031;SDS011;8120;48.308;8.914;2024-02-04T07:53:52;2.17;;;1.83;;
16031;SDS011;8120;48.308;8.914;2024-02-04T07:56:20;3.17;;;1.63;;
16031;SDS011;8120;48.308;8.914;2024-02-04T07:58:48;1.63;;;1.13;;
16031;SDS011;8120;48.308;8.914;2024-02-04T08:01:17;1.37;;;0.83;;
16031;SDS011;8120;48.308;8.914;2024-02-04T08:03:45;2.10;;;1.00;;
16031;SDS011;8120;48.308;8.914;2024-02-04T08:06:14;1.30;;;0.80;;
16031;SDS011;8120;48.308;8.914;2024-02-04T08:08:43;1.07;;;0.90;;
16031;SDS011;8120;48.308;8.914;2024-02-04T08:11:17;1.13;;;0.70;;
16031;SDS011;8120;48.308;8.914;2024-02-04T08:13:45;3.33;;;1.20;;
16031;SDS011;8120;48.308;8.914;2024-02-04T08:16:13;1.40;;;0.77;;
16031;SDS011;8120;48.308;8.914;2024-02-04T08:18:41;1.13;;;1.03;;
16031;SDS011;8120;48.308;8.914;2024-02-04T08:21:09;1.63;;;0.80;;
16031;SDS011;8120;48.308;8.914;2024-02-04T08:23:37;0.90;;;0.90;;
16031;SDS011;8120;48.308;8.914;2024-02-04T08:26:07;1.47;;;1.00;;
16031;SDS011;8120;48.308;8.914;2024-02-04T08:28:35;1.37;;;1.10;;
16031;SDS011;8120;48.308;8.914;2024-02-04T08:31:03;1.27;;;1.00;;
16031;SDS011;8120;48.308;8.914;2024-02-04T08:33:31;0.90;;;0.83;;
16031;SDS011;8120;48.308;8.914;2024-02-04T08:35:59;1.50;;;0.77;;
16031;SDS011;8120;48.308;8.914;2024-02-04T08:38:27;1.07;;;0.90;;
16031;SDS011;8120;48.308;8.914;2024-02-04T08:40:55;1.03;;;0.93;;
16031;SDS011;8120;48.308;8.914;2024-02-04T08:43:24;2.30;;;1.57;;
16031;SDS011;8120;48.308;8.914;2024-02-04T08:45:52;1.57;;;0.97;;
16031;SDS011;8120;48.308;8.914;2024-02-04T08:48:20;2.03;;;0.80;;
16031;SDS011;8120;48.308;8.914;2024-02-04T08:50:48;0.90;;;0.80;;
16031;SDS011;8120;48.308;8.914;2024-02-04T08:53:20;1.67;;;0.70;;
16031;SDS011;8120;48.308;8.914;2024-02-04T08:55:49;1.33;;;0.60;;
16031;SDS011;8120;48.308;8.914;2024-02-04T08:58:18;1.23;;;0.70;;
16031;SDS011;8120;48.308;8.914;2024-02-04T09:00:48;2.83;;;1.50;;
16031;SDS011;8120;48.308;8.914;2024-02-04T09:03:16;1.53;;;1.00;;
16031;SDS011;8120;48.308;8.914;2024-02-04T09:05:44;1.60;;;1.07;;
16031;SDS011;8120;48.308;8.914;2024-02-04T09:08:12;0.77;;;0.60;;
16031;SDS011;8120;48.308;8.914;2024-02-04T09:10:40;1.20;;;0.70;;
16031;SDS011;8120;48.308;8.914;2024-02-04T09:13:08;1.70;;;0.77;;
16031;SDS011;8120;48.308;8.914;2024-02-04T09:15:36;0.83;;;0.70;;
16031;SDS011;8120;48.308;8.914;2024-02-04T09:18:05;1.43;;;0.70;;
16031;SDS011;8120;48.308;8.914;2024-02-04T09:20:36;2.37;;;1.33;;
16031;SDS011;8120;48.308;8.914;2024-02-04T09:23:04;1.90;;;1.00;;
16031;SDS011;8120;48.308;8.914;2024-02-04T09:25:32;1.97;;;0.90;;
16031;SDS011;8120;48.308;8.914;2024-02-04T09:28:01;3.43;;;1.53;;
16031;SDS011;8120;48.308;8.914;2024-02-04T09:30:29;1.73;;;1.27;;
16031;SDS011;8120;48.308;8.914;2024-02-04T09:32:57;1.70;;;1.20;;
16031;SDS011;8120;48.308;8.914;2024-02-04T09:35:27;2.73;;;1.13;;
16031;SDS011;8120;48.308;8.914;2024-02-04T09:37:55;3.67;;;2.40;;
16031;SDS011;8120;48.308;8.914;2024-02-04T09:40:24;3.50;;;1.87;;
16031;SDS011;8120;48.308;8.914;2024-02-04T09:42:52;1.77;;;1.30;;
16031;SDS011;8120;48.308;8.914;2024-02-04T09:45:20;0.80;;;0.70;;
16031;SDS011;8120;48.308;8.914;2024-02-04T09:47:48;2.30;;;1.37;;
16031;SDS011;8120;48.308;8.914;2024-02-04T09:50:20;3.73;;;2.20;;
16031;SDS011;8120;48.308;8.914;2024-02-04T09:52:50;2.53;;;1.60;;
16031;SDS011;8120;48.308;8.914;2024-02-04T09:55:20;3.23;;;1.90;;
16031;SDS011;8120;48.308;8.914;2024-02-04T09:57:49;1.07;;;1.00;;
16031;SDS011;8120;48.308;8.914;2024-02-04T10:00:18;1.90;;;1.20;;
16031;SDS011;8120;48.308;8.914;2024-02-04T10:02:47;1.43;;;1.03;;
16031;SDS011;8120;48.308;8.914;2024-02-04T10:05:16;2.60;;;1.67;;
16031;SDS011;8120;48.308;8.914;2024-02-04T10:07:44;3.53;;;1.90;;
16031;SDS011;8120;48.308;8.914;2024-02-04T10:10:13;2.73;;;1.50;;
16031;SDS011;8120;48.308;8.914;2024-02-04T10:12:41;2.57;;;1.43;;
16031;SDS011;8120;48.308;8.914;2024-02-04T10:15:10;1.37;;;1.07;;
16031;SDS011;8120;48.308;8.914;2024-02-04T10:17:41;1.53;;;1.43;;
16031;SDS011;8120;48.308;8.914;2024-02-04T10:20:10;2.87;;;1.93;;
16031;SDS011;8120;48.308;8.914;2024-02-04T10:22:42;3.53;;;2.00;;
16031;SDS011;8120;48.308;8.914;2024-02-04T10:25:10;2.37;;;1.73;;
16031;SDS011;8120;48.308;8.914;2024-02-04T10:27:42;5.60;;;2.70;;
16031;SDS011;8120;48.308;8.914;2024-02-04T10:30:12;3.40;;;2.20;;
16031;SDS011;8120;48.308;8.914;2024-02-04T10:32:41;3.50;;;1.93;;
16031;SDS011;8120;48.308;8.914;2024-02-04T10:35:11;2.50;;;1.20;;
16031;SDS011;8120;48.308;8.914;2024-02-04T10:37:39;0.87;;;0.87;;
16031;SDS011;8120;48.308;8.914;2024-02-04T10:40:07;0.83;;;0.73;;
16031;SDS011;8120;48.308;8.914;2024-02-04T10:42:36;1.40;;;0.80;;
16031;SDS011;8120;48.308;8.914;2024-02-04T10:45:08;1.70;;;0.70;;
16031;SDS011;8120;48.308;8.914;2024-02-04T10:47:38;1.53;;;0.70;;
16031;SDS011;8120;48.308;8.914;2024-02-04T10:50:07;5.93;;;1.00;;
16031;SDS011;8120;48.308;8.914;2024-02-04T10:52:36;1.83;;;0.60;;
16031;SDS011;8120;48.308;8.914;2024-02-04T10:55:06;0.90;;;0.70;;
16031;SDS011;8120;48.308;8.914;2024-02-04T10:57:36;0.53;;;0.53;;
16031;SDS011;8120;48.308;8.914;2024-02-04T11:00:05;3.37;;;0.70;;
16031;SDS011;8120;48.308;8.914;2024-02-04T11:02:38;0.93;;;0.50;;
16031;SDS011;8120;48.308;8.914;2024-02-04T11:05:07;1.17;;;0.60;;
16031;SDS011;8120;48.308;8.914;2024-02-04T11:07:36;1.47;;;1.00;;
16031;SDS011;8120;48.308;8.914;2024-02-04T11:10:05;1.13;;;0.83;;
16031;SDS011;8120;48.308;8.914;2024-02-04T11:12:34;0.97;;;0.50;;
16031;SDS011;8120;48.308;8.914;2024-02-04T11:15:04;2.83;;;0.93;;
16031;SDS011;8120;48.308;8.914;2024-02-04T11:17:47;2.50;;;0.73;;
16031;SDS011;8120;48.308;8.914;2024-02-04T11:20:30;1.17;;;0.50;;
16031;SDS011;8120;48.308;8.914;2024-02-04T11:23:19;1.17;;;0.60;;
16031;SDS011;8120;48.308;8.914;2024-02-04T11:25:59;1.80;;;0.40;;
16031;SDS011;8120;48.308;8.914;2024-02-04T11:28:28;1.47;;;0.67;;
16031;SDS011;8120;48.308;8.914;2024-02-04T11:30:58;3.30;;;0.50;;
16031;SDS011;8120;48.308;8.914;2024-02-04T11:33:26;1.23;;;1.13;;
16031;SDS011;8120;48.308;8.914;2024-02-04T11:35:59;1.60;;;0.80;;
16031;SDS011;8120;48.308;8.914;2024-02-04T11:38:31;1.33;;;0.70;;
16031;SDS011;8120;48.308;8.914;2024-02-04T11:41:01;0.30;;;0.30;;
16031;SDS011;8120;48.308;8.914;2024-02-04T11:43:32;0.60;;;0.50;;
16031;SDS011;8120;48.308;8.914;2024-02-04T11:46:03;2.53;;;0.83;;
16031;SDS011;8120;48.308;8.914;2024-02-04T11:48:32;3.23;;;0.80;;
16031;SDS011;8120;48.308;8.914;2024-02-04T11:51:03;0.80;;;0.60;;
16031;SDS011;8120;48.308;8.914;2024-02-04T11:53:33;1.00;;;0.77;;
16031;SDS011;8120;48.308;8.914;2024-02-04T11:56:01;1.67;;;0.70;;
16031;SDS011;8120;48.308;8.914;2024-02-04T11:58:30;1.30;;;0.83;;
16031;SDS011;8120;48.308;8.914;2024-02-04T12:00:59;1.93;;;0.70;;
16031;SDS011;8120;48.308;8.914;2024-02-04T12:03:31;0.60;;;0.50;;
16031;SDS011;8120;48.308;8.914;2024-02-04T12:06:00;9.23;;;5.33;;
16031;SDS011;8120;48.308;8.914;2024-02-04T12:08:29;30.80;;;13.27;;
16031;SDS011;8120;48.308;8.914;2024-02-04T12:10:59;32.73;;;15.47;;
16031;SDS011;8120;48.308;8.914;2024-02-04T12:13:28;2.87;;;1.10;;
16031;SDS011;8120;48.308;8.914;2024-02-04T12:15:58;0.60;;;0.60;;
16031;SDS011;8120;48.308;8.914;2024-02-04T12:18:28;1.20;;;0.90;;
16031;SDS011;8120;48.308;8.914;2024-02-04T12:20:56;2.83;;;1.13;;
16031;SDS011;8120;48.308;8.914;2024-02-04T12:23:24;0.93;;;0.93;;
16031;SDS011;8120;48.308;8.914;2024-02-04T12:25:54;1.50;;;0.80;;
16031;SDS011;8120;48.308;8.914;2024-02-04T12:28:23;1.67;;;0.90;;
16031;SDS011;8120;48.308;8.914;2024-02-04T12:30:54;1.50;;;1.40;;
16031;SDS011;8120;48.308;8.914;2024-02-04T12:33:22;5.70;;;4.83;;
16031;SDS011;8120;48.308;8.914;2024-02-04T12:35:52;1.73;;;1.30;;
16031;SDS011;8120;48.308;8.914;2024-02-04T12:38:22;2.03;;;1.10;;
16031;SDS011;8120;48.308;8.914;2024-02-04T12:40:50;1.27;;;0.80;;
16031;SDS011;8120;48.308;8.914;2024-02-04T12:43:18;1.03;;;0.90;;
16031;SDS011;8120;48.308;8.914;2024-02-04T12:45:46;1.63;;;1.50;;
16031;SDS011;8120;48.308;8.914;2024-02-04T12:48:15;2.57;;;1.43;;
16031;SDS011;8120;48.308;8.914;2024-02-04T12:50:44;2.73;;;0.90;;
16031;SDS011;8120;48.308;8.914;2024-02-04T12:53:13;2.90;;;1.17;;
16031;SDS011;8120;48.308;8.914;2024-02-04T12:55:42;1.43;;;1.13;;
16031;SDS011;8120;48.308;8.914;2024-02-04T12:58:10;1.90;;;1.13;;
16031;SDS011;8120;48.308;8.914;2024-02-04T13:00:41;2.37;;;1.93;;
16031;SDS011;8120;48.308;8.914;2024-02-04T13:03:09;0.60;;;0.60;;
16031;SDS011;8120;48.308;8.914;2024-02-04T13:05:37;0.70;;;0.47;;
16031;SDS011;8120;48.308;8.914;2024-02-04T13:08:05;0.90;;;0.70;;
16031;SDS011;8120;48.308;8.914;2024-02-04T13:10:36;2.10;;;0.90;;
16031;SDS011;8120;48.308;8.914;2024-02-04T13:13:04;2.03;;;1.00;;
16031;SDS011;8120;48.308;8.914;2024-02-04T13:15:36;2.40;;;1.00;;
16031;SDS011;8120;48.308;8.914;2024-02-04T13:18:05;1.67;;;0.80;;
16031;SDS011;8120;48.308;8.914;2024-02-04T13:20:34;3.03;;;1.63;;
16031;SDS011;8120;48.308;8.914;2024-02-04T13:23:02;0.80;;;0.60;;
16031;SDS011;8120;48.308;8.914;2024-02-04T13:25:32;1.07;;;0.80;;
16031;SDS011;8120;48.308;8.914;2024-02-04T13:28:02;2.10;;;1.37;;
16031;SDS011;8120;48.308;8.914;2024-02-04T13:30:31;4.60;;;3.60;;
16031;SDS011;8120;48.308;8.914;2024-02-04T13:32:59;2.40;;;1.80;;
16031;SDS011;8120;48.308;8.914;2024-02-04T13:35:28;1.57;;;0.83;;
16031;SDS011;8120;48.308;8.914;2024-02-04T13:37:57;1.67;;;0.80;;
16031;SDS011;8120;48.308;8.914;2024-02-04T13:40:25;1.43;;;0.93;;
16031;SDS011;8120;48.308;8.914;2024-02-04T13:42:53;2.13;;;1.10;;
16031;SDS011;8120;48.308;8.914;2024-02-04T13:45:22;1.30;;;0.70;;
16031;SDS011;8120;48.308;8.914;2024-02-04T13:47:50;3.10;;;1.07;;
16031;SDS011;8120;48.308;8.914;2024-02-04T13:50:18;8.17;;;5.57;;
16031;SDS011;8120;48.308;8.914;2024-02-04T13:52:46;9.37;;;7.63;;
16031;SDS011;8120;48.308;8.914;2024-02-04T13:55:14;4.73;;;3.33;;
16031;SDS011;8120;48.308;8.914;2024-02-04T13:57:42;3.63;;;2.30;;
16031;SDS011;8120;48.308;8.914;2024-02-04T14:00:11;3.40;;;1.10;;
16031;SDS011;8120;48.308;8.914;2024-02-04T14:02:41;3.53;;;2.37;;
16031;SDS011;8120;48.308;8.914;2024-02-04T14:05:09;4.03;;;2.10;;
16031;SDS011;8120;48.308;8.914;2024-02-04T14:07:37;3.50;;;1.97;;
16031;SDS011;8120;48.308;8.914;2024-02-04T14:10:05;1.67;;;1.00;;
16031;SDS011;8120;48.308;8.914;2024-02-04T14:12:35;2.67;;;1.10;;
16031;SDS011;8120;48.308;8.914;2024-02-04T14:15:03;4.30;;;2.37;;
16031;SDS011;8120;48.308;8.914;2024-02-04T14:17:31;1.93;;;1.20;;
16031;SDS011;8120;48.308;8.914;2024-02-04T14:20:00;2.77;;;0.87;;
16031;SDS011;8120;48.308;8.914;2024-02-04T14:22:30;2.27;;;1.10;;
16031;SDS011;8120;48.308;8.914;2024-02-04T14:24:58;1.10;;;0.80;;
16031;SDS011;8120;48.308;8.914;2024-02-04T14:27:27;0.67;;;0.60;;
16031;SDS011;8120;48.308;8.914;2024-02-04T14:29:56;2.23;;;0.73;;
16031;SDS011;8120;48.308;8.914;2024-02-04T14:32:23;0.27;;;0.27;;
16031;SDS011;8120;48.308;8.914;2024-02-04T14:34:51;0.50;;;0.50;;
16031;SDS011;8120;48.308;8.914;2024-02-04T14:37:22;0.50;;;0.50;;
16031;SDS011;8120;48.308;8.914;2024-02-04T14:39:50;0.37;;;0.30;;
16031;SDS011;8120;48.308;8.914;2024-02-04T14:42:18;0.63;;;0.23;;
16031;SDS011;8120;48.308;8.914;2024-02-04T14:44:46;0.37;;;0.37;;
16031;SDS011;8120;48.308;8.914;2024-02-04T14:47:14;0.30;;;0.30;;
16031;SDS011;8120;48.308;8.914;2024-02-04T14:49:42;0.60;;;0.40;;
16031;SDS011;8120;48.308;8.914;2024-02-04T14:52:11;0.30;;;0.30;;
16031;SDS011;8120;48.308;8.914;2024-02-04T14:54:40;0.43;;;0.40;;
16031;SDS011;8120;48.308;8.914;2024-02-04T14:57:09;0.40;;;0.40;;
16031;SDS011;8120;48.308;8.914;2024-02-04T14:59:38;1.83;;;0.80;;
16031;SDS011;8120;48.308;8.914;2024-02-04T15:02:06;0.27;;;0.23;;
16031;SDS011;8120;48.308;8.914;2024-02-04T15:04:34;1.03;;;0.47;;
16031;SDS011;8120;48.308;8.914;2024-02-04T15:07:03;0.83;;;0.67;;
16031;SDS011;8120;48.308;8.914;2024-02-04T15:09:31;0.87;;;0.50;;
16031;SDS011;8120;48.308;8.914;2024-02-04T15:12:01;1.10;;;0.67;;